sensor_id;sensor_type;location;lat;lon;timestamp;P1;durP1;ratioP1;P2;durP2;ratioP2
51872;SDS011;52863;52.504;13.480;2022-07-29T00:01:39;4.23;;;2.70;;
51872;SDS011;52863;52.504;13.480;2022-07-29T00:04:08;5.00;;;2.70;;
51872;SDS011;52863;52.504;13.480;2022-07-29T00:06:38;6.33;;;2.90;;
51872;SDS011;52863;52.504;13.480;2022-07-29T00:09:07;6.43;;;3.13;;
51872;SDS011;52863;52.504;13.480;2022-07-29T00:11:35;6.00;;;2.53;;
51872;SDS011;52863;52.504;13.480;2022-07-29T00:14:04;3.90;;;2.67;;
51872;SDS011;52863;52.504;13.480;2022-07-29T00:16:32;6.90;;;2.73;;
51872;SDS011;52863;52.504;13.480;2022-07-29T00:19:01;6.60;;;2.90;;
51872;SDS011;52863;52.504;13.480;2022-07-29T00:21:29;4.80;;;3.13;;
51872;SDS011;52863;52.504;13.480;2022-07-29T00:23:59;7.27;;;3.30;;
51872;SDS011;52863;52.504;13.480;2022-07-29T00:26:27;5.27;;;2.93;;
51872;SDS011;52863;52.504;13.480;2022-07-29T00:28:58;7.87;;;2.80;;
51872;SDS011;52863;52.504;13.480;2022-07-29T00:31:46;8.77;;;3.10;;
51872;SDS011;52863;52.504;13.480;2022-07-29T00:34:15;4.77;;;2.87;;
51872;SDS011;52863;52.504;13.480;2022-07-29T00:37:02;7.13;;;3.17;;
51872;SDS011;52863;52.504;13.480;2022-07-29T00:39:34;8.20;;;3.43;;
51872;SDS011;52863;52.504;13.480;2022-07-29T00:42:03;4.93;;;3.20;;
51872;SDS011;52863;52.504;13.480;2022-07-29T00:44:35;6.57;;;3.30;;
51872;SDS011;52863;52.504;13.480;2022-07-29T00:47:04;6.60;;;3.50;;
51872;SDS011;52863;52.504;13.480;2022-07-29T00:49:33;5.17;;;3.30;;
51872;SDS011;52863;52.504;13.480;2022-07-29T00:52:02;6.00;;;3.20;;
51872;SDS011;52863;52.504;13.480;2022-07-29T00:54:30;6.27;;;3.57;;
51872;SDS011;52863;52.504;13.480;2022-07-29T00:57:01;6.53;;;3.07;;
51872;SDS011;52863;52.504;13.480;2022-07-29T00:59:31;7.20;;;2.90;;
51872;SDS011;52863;52.504;13.480;2022-07-29T01:02:00;7.63;;;3.03;;
51872;SDS011;52863;52.504;13.480;2022-07-29T01:04:29;7.93;;;3.00;;
51872;SDS011;52863;52.504;13.480;2022-07-29T01:06:59;7.70;;;3.17;;
51872;SDS011;52863;52.504;13.480;2022-07-29T01:09:29;6.20;;;2.90;;
51872;SDS011;52863;52.504;13.480;2022-07-29T01:12:13;5.50;;;2.93;;
51872;SDS011;52863;52.504;13.480;2022-07-29T01:14:46;5.70;;;3.10;;
51872;SDS011;52863;52.504;13.480;2022-07-29T01:17:17;6.37;;;3.17;;
51872;SDS011;52863;52.504;13.480;2022-07-29T01:19:51;7.17;;;3.40;;
51872;SDS011;52863;52.504;13.480;2022-07-29T01:22:35;8.00;;;3.33;;
51872;SDS011;52863;52.504;13.480;2022-07-29T01:25:32;5.07;;;3.10;;
51872;SDS011;52863;52.504;13.480;2022-07-29T01:31:27;6.53;;;2.97;;
51872;SDS011;52863;52.504;13.480;2022-07-29T01:34:08;6.83;;;2.87;;
51872;SDS011;52863;52.504;13.480;2022-07-29T01:36:45;8.90;;;2.70;;
51872;SDS011;52863;52.504;13.480;2022-07-29T01:39:17;8.40;;;3.10;;
51872;SDS011;52863;52.504;13.480;2022-07-29T01:41:48;7.23;;;3.43;;
51872;SDS011;52863;52.504;13.480;2022-07-29T01:44:23;6.60;;;3.13;;
51872;SDS011;52863;52.504;13.480;2022-07-29T01:46:58;5.23;;;2.80;;
51872;SDS011;52863;52.504;13.480;2022-07-29T01:49:34;5.63;;;3.47;;
51872;SDS011;52863;52.504;13.480;2022-07-29T01:52:07;6.23;;;3.17;;
51872;SDS011;52863;52.504;13.480;2022-07-29T01:54:45;6.10;;;3.30;;
51872;SDS011;52863;52.504;13.480;2022-07-29T01:57:18;6.17;;;3.00;;
51872;SDS011;52863;52.504;13.480;2022-07-29T01:59:52;6.40;;;2.83;;
51872;SDS011;52863;52.504;13.480;2022-07-29T02:02:23;4.40;;;2.73;;
51872;SDS011;52863;52.504;13.480;2022-07-29T02:04:53;4.17;;;2.77;;
51872;SDS011;52863;52.504;13.480;2022-07-29T02:07:23;4.70;;;2.53;;
51872;SDS011;52863;52.504;13.480;2022-07-29T02:09:55;8.03;;;2.93;;
51872;SDS011;52863;52.504;13.480;2022-07-29T02:12:25;6.73;;;2.93;;
51872;SDS011;52863;52.504;13.480;2022-07-29T02:14:57;5.13;;;2.83;;
51872;SDS011;52863;52.504;13.480;2022-07-29T02:17:33;5.87;;;2.60;;
51872;SDS011;52863;52.504;13.480;2022-07-29T02:20:06;4.67;;;2.20;;
51872;SDS011;52863;52.504;13.480;2022-07-29T02:22:37;5.87;;;2.50;;
51872;SDS011;52863;52.504;13.480;2022-07-29T02:25:07;4.13;;;2.80;;
51872;SDS011;52863;52.504;13.480;2022-07-29T02:27:39;5.07;;;3.00;;
51872;SDS011;52863;52.504;13.480;2022-07-29T02:30:11;3.77;;;2.83;;
51872;SDS011;52863;52.504;13.480;2022-07-29T02:32:40;3.43;;;3.07;;
51872;SDS011;52863;52.504;13.480;2022-07-29T02:35:13;5.67;;;3.10;;
51872;SDS011;52863;52.504;13.480;2022-07-29T02:37:42;5.10;;;3.10;;
51872;SDS011;52863;52.504;13.480;2022-07-29T02:40:33;5.97;;;2.80;;
51872;SDS011;52863;52.504;13.480;2022-07-29T02:43:03;4.87;;;2.97;;
51872;SDS011;52863;52.504;13.480;2022-07-29T02:45:35;4.47;;;2.80;;
51872;SDS011;52863;52.504;13.480;2022-07-29T02:48:05;5.30;;;2.87;;
51872;SDS011;52863;52.504;13.480;2022-07-29T02:50:38;5.07;;;2.63;;
51872;SDS011;52863;52.504;13.480;2022-07-29T02:53:12;3.97;;;3.00;;
51872;SDS011;52863;52.504;13.480;2022-07-29T02:55:43;5.33;;;2.77;;
51872;SDS011;52863;52.504;13.480;2022-07-29T02:58:14;8.10;;;3.10;;
51872;SDS011;52863;52.504;13.480;2022-07-29T03:00:50;5.60;;;2.93;;
51872;SDS011;52863;52.504;13.480;2022-07-29T03:03:20;6.17;;;2.90;;
51872;SDS011;52863;52.504;13.480;2022-07-29T03:05:49;5.57;;;2.80;;
51872;SDS011;52863;52.504;13.480;2022-07-29T03:08:17;5.30;;;3.07;;
51872;SDS011;52863;52.504;13.480;2022-07-29T03:10:46;6.80;;;2.70;;
51872;SDS011;52863;52.504;13.480;2022-07-29T03:13:14;10.73;;;3.27;;
51872;SDS011;52863;52.504;13.480;2022-07-29T03:15:46;7.33;;;2.80;;
51872;SDS011;52863;52.504;13.480;2022-07-29T03:18:16;5.93;;;3.03;;
51872;SDS011;52863;52.504;13.480;2022-07-29T03:20:45;4.43;;;2.67;;
51872;SDS011;52863;52.504;13.480;2022-07-29T03:23:18;5.67;;;3.00;;
51872;SDS011;52863;52.504;13.480;2022-07-29T03:25:47;7.03;;;3.23;;
51872;SDS011;52863;52.504;13.480;2022-07-29T03:28:15;5.53;;;3.10;;
51872;SDS011;52863;52.504;13.480;2022-07-29T03:30:44;7.70;;;3.03;;
51872;SDS011;52863;52.504;13.480;2022-07-29T03:33:13;4.57;;;2.70;;
51872;SDS011;52863;52.504;13.480;2022-07-29T03:35:43;11.53;;;3.10;;
51872;SDS011;52863;52.504;13.480;2022-07-29T03:38:11;6.67;;;3.17;;
51872;SDS011;52863;52.504;13.480;2022-07-29T03:40:40;9.33;;;2.77;;
51872;SDS011;52863;52.504;13.480;2022-07-29T03:43:13;9.53;;;2.93;;
51872;SDS011;52863;52.504;13.480;2022-07-29T03:45:44;4.90;;;2.80;;
51872;SDS011;52863;52.504;13.480;2022-07-29T03:48:17;5.93;;;3.30;;
51872;SDS011;52863;52.504;13.480;2022-07-29T03:50:50;8.53;;;3.00;;
51872;SDS011;52863;52.504;13.480;2022-07-29T03:53:19;6.10;;;3.00;;
51872;SDS011;52863;52.504;13.480;2022-07-29T03:55:48;5.50;;;3.00;;
51872;SDS011;52863;52.504;13.480;2022-07-29T03:58:21;5.63;;;2.90;;
51872;SDS011;52863;52.504;13.480;2022-07-29T04:00:50;10.03;;;3.00;;
51872;SDS011;52863;52.504;13.480;2022-07-29T04:03:19;8.57;;;3.00;;
51872;SDS011;52863;52.504;13.480;2022-07-29T04:05:58;6.57;;;3.23;;
51872;SDS011;52863;52.504;13.480;2022-07-29T04:08:27;6.03;;;2.80;;
51872;SDS011;52863;52.504;13.480;2022-07-29T04:10:55;4.77;;;2.70;;
51872;SDS011;52863;52.504;13.480;2022-07-29T04:13:24;6.00;;;2.50;;
51872;SDS011;52863;52.504;13.480;2022-07-29T04:15:52;5.87;;;2.53;;
51872;SDS011;52863;52.504;13.480;2022-07-29T04:18:21;3.73;;;2.80;;
51872;SDS011;52863;52.504;13.480;2022-07-29T04:20:49;6.43;;;3.07;;
51872;SDS011;52863;52.504;13.480;2022-07-29T04:23:19;6.13;;;2.60;;
51872;SDS011;52863;52.504;13.480;2022-07-29T04:25:47;7.10;;;2.80;;
51872;SDS011;52863;52.504;13.480;2022-07-29T04:28:15;8.80;;;3.50;;
51872;SDS011;52863;52.504;13.480;2022-07-29T04:30:44;6.17;;;2.83;;
51872;SDS011;52863;52.504;13.480;2022-07-29T04:33:12;5.20;;;3.03;;
51872;SDS011;52863;52.504;13.480;2022-07-29T04:35:41;5.83;;;2.53;;
51872;SDS011;52863;52.504;13.480;2022-07-29T04:38:18;5.37;;;2.60;;
51872;SDS011;52863;52.504;13.480;2022-07-29T04:40:47;6.10;;;2.63;;
51872;SDS011;52863;52.504;13.480;2022-07-29T04:43:15;8.73;;;2.97;;
51872;SDS011;52863;52.504;13.480;2022-07-29T04:45:48;5.10;;;3.10;;
51872;SDS011;52863;52.504;13.480;2022-07-29T04:48:17;8.23;;;3.33;;
51872;SDS011;52863;52.504;13.480;2022-07-29T04:50:53;14.17;;;4.10;;
51872;SDS011;52863;52.504;13.480;2022-07-29T04:53:23;7.07;;;3.07;;
51872;SDS011;52863;52.504;13.480;2022-07-29T04:55:51;10.60;;;3.00;;
51872;SDS011;52863;52.504;13.480;2022-07-29T04:58:19;4.53;;;2.57;;
51872;SDS011;52863;52.504;13.480;2022-07-29T05:00:49;4.40;;;2.57;;
51872;SDS011;52863;52.504;13.480;2022-07-29T05:03:20;10.80;;;2.60;;
51872;SDS011;52863;52.504;13.480;2022-07-29T05:05:48;7.23;;;2.80;;
51872;SDS011;52863;52.504;13.480;2022-07-29T05:08:16;6.73;;;2.73;;
51872;SDS011;52863;52.504;13.480;2022-07-29T05:10:46;3.40;;;2.70;;
51872;SDS011;52863;52.504;13.480;2022-07-29T05:13:14;6.43;;;2.77;;
51872;SDS011;52863;52.504;13.480;2022-07-29T05:15:43;5.83;;;2.60;;
51872;SDS011;52863;52.504;13.480;2022-07-29T05:18:12;7.53;;;2.63;;
51872;SDS011;52863;52.504;13.480;2022-07-29T05:20:40;7.30;;;3.10;;
51872;SDS011;52863;52.504;13.480;2022-07-29T05:23:08;6.23;;;2.73;;
51872;SDS011;52863;52.504;13.480;2022-07-29T05:25:38;7.70;;;3.37;;
51872;SDS011;52863;52.504;13.480;2022-07-29T05:28:11;4.63;;;2.30;;
51872;SDS011;52863;52.504;13.480;2022-07-29T05:30:40;8.47;;;2.73;;
51872;SDS011;52863;52.504;13.480;2022-07-29T05:33:08;7.23;;;2.67;;
51872;SDS011;52863;52.504;13.480;2022-07-29T05:35:57;8.13;;;2.90;;
51872;SDS011;52863;52.504;13.480;2022-07-29T05:38:27;7.90;;;2.70;;
51872;SDS011;52863;52.504;13.480;2022-07-29T05:40:57;3.50;;;2.50;;
51872;SDS011;52863;52.504;13.480;2022-07-29T05:43:27;5.20;;;2.60;;
51872;SDS011;52863;52.504;13.480;2022-07-29T05:45:56;6.53;;;2.80;;
51872;SDS011;52863;52.504;13.480;2022-07-29T05:48:25;7.67;;;2.73;;
51872;SDS011;52863;52.504;13.480;2022-07-29T05:50:53;6.10;;;2.87;;
51872;SDS011;52863;52.504;13.480;2022-07-29T05:53:25;8.60;;;3.10;;
51872;SDS011;52863;52.504;13.480;2022-07-29T05:55:54;10.60;;;3.13;;
51872;SDS011;52863;52.504;13.480;2022-07-29T05:58:22;9.27;;;2.97;;
51872;SDS011;52863;52.504;13.480;2022-07-29T06:00:52;6.23;;;2.77;;
51872;SDS011;52863;52.504;13.480;2022-07-29T06:03:25;4.53;;;2.50;;
51872;SDS011;52863;52.504;13.480;2022-07-29T06:05:56;7.10;;;3.00;;
51872;SDS011;52863;52.504;13.480;2022-07-29T06:08:30;7.27;;;2.60;;
51872;SDS011;52863;52.504;13.480;2022-07-29T06:11:00;5.53;;;2.73;;
51872;SDS011;52863;52.504;13.480;2022-07-29T06:13:28;7.67;;;2.57;;
51872;SDS011;52863;52.504;13.480;2022-07-29T06:15:58;3.97;;;2.70;;
51872;SDS011;52863;52.504;13.480;2022-07-29T06:18:26;6.67;;;2.40;;
51872;SDS011;52863;52.504;13.480;2022-07-29T06:20:55;5.37;;;2.30;;
51872;SDS011;52863;52.504;13.480;2022-07-29T06:23:23;6.13;;;2.20;;
51872;SDS011;52863;52.504;13.480;2022-07-29T06:25:52;5.03;;;2.27;;
51872;SDS011;52863;52.504;13.480;2022-07-29T06:28:20;7.70;;;2.50;;
51872;SDS011;52863;52.504;13.480;2022-07-29T06:30:49;3.67;;;2.03;;
51872;SDS011;52863;52.504;13.480;2022-07-29T06:33:19;4.03;;;2.43;;
51872;SDS011;52863;52.504;13.480;2022-07-29T06:35:47;7.60;;;2.87;;
51872;SDS011;52863;52.504;13.480;2022-07-29T06:38:20;6.00;;;2.60;;
51872;SDS011;52863;52.504;13.480;2022-07-29T06:40:58;9.37;;;2.40;;
51872;SDS011;52863;52.504;13.480;2022-07-29T06:43:29;5.87;;;2.50;;
51872;SDS011;52863;52.504;13.480;2022-07-29T06:46:00;15.87;;;2.23;;
51872;SDS011;52863;52.504;13.480;2022-07-29T06:48:31;7.37;;;2.00;;
51872;SDS011;52863;52.504;13.480;2022-07-29T06:51:00;5.43;;;2.23;;
51872;SDS011;52863;52.504;13.480;2022-07-29T06:53:31;6.93;;;3.40;;
51872;SDS011;52863;52.504;13.480;2022-07-29T06:56:00;5.93;;;2.20;;
51872;SDS011;52863;52.504;13.480;2022-07-29T06:58:29;5.53;;;2.17;;
51872;SDS011;52863;52.504;13.480;2022-07-29T07:00:58;4.50;;;2.30;;
51872;SDS011;52863;52.504;13.480;2022-07-29T07:03:28;9.53;;;2.93;;
51872;SDS011;52863;52.504;13.480;2022-07-29T07:05:58;6.53;;;2.57;;
51872;SDS011;52863;52.504;13.480;2022-07-29T07:08:27;4.30;;;2.10;;
51872;SDS011;52863;52.504;13.480;2022-07-29T07:10:55;7.03;;;2.20;;
51872;SDS011;52863;52.504;13.480;2022-07-29T07:13:23;7.33;;;2.03;;
51872;SDS011;52863;52.504;13.480;2022-07-29T07:15:52;6.73;;;2.47;;
51872;SDS011;52863;52.504;13.480;2022-07-29T07:18:20;6.30;;;2.23;;
51872;SDS011;52863;52.504;13.480;2022-07-29T07:20:49;9.70;;;2.30;;
51872;SDS011;52863;52.504;13.480;2022-07-29T07:23:18;6.43;;;2.43;;
51872;SDS011;52863;52.504;13.480;2022-07-29T07:25:46;6.70;;;2.10;;
51872;SDS011;52863;52.504;13.480;2022-07-29T07:28:15;5.17;;;2.20;;
51872;SDS011;52863;52.504;13.480;2022-07-29T07:30:44;8.83;;;2.63;;
51872;SDS011;52863;52.504;13.480;2022-07-29T07:33:12;3.27;;;1.83;;
51872;SDS011;52863;52.504;13.480;2022-07-29T07:35:41;6.37;;;2.00;;
51872;SDS011;52863;52.504;13.480;2022-07-29T07:38:10;4.63;;;2.10;;
51872;SDS011;52863;52.504;13.480;2022-07-29T07:40:42;3.00;;;2.10;;
51872;SDS011;52863;52.504;13.480;2022-07-29T07:43:12;6.07;;;2.40;;
51872;SDS011;52863;52.504;13.480;2022-07-29T07:45:40;5.87;;;2.00;;
51872;SDS011;52863;52.504;13.480;2022-07-29T07:48:09;4.37;;;2.07;;
51872;SDS011;52863;52.504;13.480;2022-07-29T07:50:37;3.63;;;1.90;;
51872;SDS011;52863;52.504;13.480;2022-07-29T07:53:06;5.47;;;2.10;;
51872;SDS011;52863;52.504;13.480;2022-07-29T07:55:38;7.40;;;1.80;;
51872;SDS011;52863;52.504;13.480;2022-07-29T07:58:28;5.43;;;1.70;;
51872;SDS011;52863;52.504;13.480;2022-07-29T08:00:57;4.13;;;1.90;;
51872;SDS011;52863;52.504;13.480;2022-07-29T08:03:25;7.43;;;1.80;;
51872;SDS011;52863;52.504;13.480;2022-07-29T08:05:53;7.47;;;1.53;;
51872;SDS011;52863;52.504;13.480;2022-07-29T08:08:21;4.13;;;2.00;;
51872;SDS011;52863;52.504;13.480;2022-07-29T08:10:51;7.03;;;1.97;;
51872;SDS011;52863;52.504;13.480;2022-07-29T08:13:20;6.43;;;1.60;;
51872;SDS011;52863;52.504;13.480;2022-07-29T08:15:49;7.30;;;2.07;;
51872;SDS011;52863;52.504;13.480;2022-07-29T08:18:24;4.60;;;1.93;;
51872;SDS011;52863;52.504;13.480;2022-07-29T08:20:53;4.70;;;1.70;;
51872;SDS011;52863;52.504;13.480;2022-07-29T08:23:21;4.13;;;1.73;;
51872;SDS011;52863;52.504;13.480;2022-07-29T08:25:52;5.13;;;1.77;;
51872;SDS011;52863;52.504;13.480;2022-07-29T08:28:20;5.67;;;1.77;;
51872;SDS011;52863;52.504;13.480;2022-07-29T08:30:51;3.27;;;1.37;;
51872;SDS011;52863;52.504;13.480;2022-07-29T08:43:13;6.00;;;1.92;;
51872;SDS011;52863;52.504;13.480;2022-07-29T08:45:42;5.23;;;1.50;;
51872;SDS011;52863;52.504;13.480;2022-07-29T08:48:14;7.27;;;1.93;;
51872;SDS011;52863;52.504;13.480;2022-07-29T08:50:43;4.23;;;1.80;;
51872;SDS011;52863;52.504;13.480;2022-07-29T08:53:13;4.80;;;1.80;;
51872;SDS011;52863;52.504;13.480;2022-07-29T08:55:42;2.90;;;1.60;;
51872;SDS011;52863;52.504;13.480;2022-07-29T08:58:14;4.33;;;2.00;;
51872;SDS011;52863;52.504;13.480;2022-07-29T09:00:49;4.77;;;1.70;;
51872;SDS011;52863;52.504;13.480;2022-07-29T09:03:23;6.37;;;1.63;;
51872;SDS011;52863;52.504;13.480;2022-07-29T09:05:52;5.63;;;1.60;;
51872;SDS011;52863;52.504;13.480;2022-07-29T09:08:21;6.40;;;2.10;;
51872;SDS011;52863;52.504;13.480;2022-07-29T09:10:50;4.33;;;1.90;;
51872;SDS011;52863;52.504;13.480;2022-07-29T09:13:21;6.83;;;1.70;;
51872;SDS011;52863;52.504;13.480;2022-07-29T09:15:49;4.67;;;2.03;;
51872;SDS011;52863;52.504;13.480;2022-07-29T09:21:04;6.17;;;1.80;;
51872;SDS011;52863;52.504;13.480;2022-07-29T09:23:59;4.63;;;1.83;;
51872;SDS011;52863;52.504;13.480;2022-07-29T09:26:34;4.30;;;1.60;;
51872;SDS011;52863;52.504;13.480;2022-07-29T09:29:11;2.23;;;1.57;;
51872;SDS011;52863;52.504;13.480;2022-07-29T09:31:41;7.57;;;2.10;;
51872;SDS011;52863;52.504;13.480;2022-07-29T09:34:11;4.07;;;1.90;;
51872;SDS011;52863;52.504;13.480;2022-07-29T09:36:42;3.83;;;1.73;;
51872;SDS011;52863;52.504;13.480;2022-07-29T09:39:11;3.53;;;1.90;;
51872;SDS011;52863;52.504;13.480;2022-07-29T09:41:46;2.77;;;1.70;;
51872;SDS011;52863;52.504;13.480;2022-07-29T09:44:17;6.50;;;1.90;;
51872;SDS011;52863;52.504;13.480;2022-07-29T09:46:53;2.20;;;1.50;;
51872;SDS011;52863;52.504;13.480;2022-07-29T09:49:23;5.13;;;1.80;;
51872;SDS011;52863;52.504;13.480;2022-07-29T09:52:03;4.93;;;1.73;;
51872;SDS011;52863;52.504;13.480;2022-07-29T09:54:33;4.07;;;1.57;;
51872;SDS011;52863;52.504;13.480;2022-07-29T09:57:07;4.63;;;1.70;;
51872;SDS011;52863;52.504;13.480;2022-07-29T09:59:40;6.00;;;1.67;;
51872;SDS011;52863;52.504;13.480;2022-07-29T10:02:27;5.83;;;1.50;;
51872;SDS011;52863;52.504;13.480;2022-07-29T10:04:58;4.00;;;1.73;;
51872;SDS011;52863;52.504;13.480;2022-07-29T10:07:27;8.27;;;1.40;;
51872;SDS011;52863;52.504;13.480;2022-07-29T10:10:21;3.03;;;1.30;;
51872;SDS011;52863;52.504;13.480;2022-07-29T10:12:52;2.70;;;1.17;;
51872;SDS011;52863;52.504;13.480;2022-07-29T10:15:24;8.97;;;1.80;;
51872;SDS011;52863;52.504;13.480;2022-07-29T10:17:54;6.60;;;1.60;;
51872;SDS011;52863;52.504;13.480;2022-07-29T10:20:23;2.20;;;1.07;;
51872;SDS011;52863;52.504;13.480;2022-07-29T10:22:53;3.03;;;1.40;;
51872;SDS011;52863;52.504;13.480;2022-07-29T10:25:23;2.47;;;1.07;;
51872;SDS011;52863;52.504;13.480;2022-07-29T10:27:52;6.53;;;1.50;;
51872;SDS011;52863;52.504;13.480;2022-07-29T10:30:22;3.23;;;1.30;;
51872;SDS011;52863;52.504;13.480;2022-07-29T10:36:04;7.40;;;1.50;;
51872;SDS011;52863;52.504;13.480;2022-07-29T10:38:50;2.93;;;1.57;;
51872;SDS011;52863;52.504;13.480;2022-07-29T10:44:21;3.00;;;1.30;;
51872;SDS011;52863;52.504;13.480;2022-07-29T10:46:52;3.27;;;1.23;;
51872;SDS011;52863;52.504;13.480;2022-07-29T10:49:21;4.97;;;1.37;;
51872;SDS011;52863;52.504;13.480;2022-07-29T10:51:56;4.30;;;1.40;;
51872;SDS011;52863;52.504;13.480;2022-07-29T10:54:42;4.93;;;1.40;;
51872;SDS011;52863;52.504;13.480;2022-07-29T11:00:26;3.63;;;1.60;;
51872;SDS011;52863;52.504;13.480;2022-07-29T11:02:58;3.70;;;1.47;;
51872;SDS011;52863;52.504;13.480;2022-07-29T11:08:21;3.30;;;1.20;;
51872;SDS011;52863;52.504;13.480;2022-07-29T11:14:03;4.30;;;1.70;;
51872;SDS011;52863;52.504;13.480;2022-07-29T11:19:28;5.43;;;1.60;;
51872;SDS011;52863;52.504;13.480;2022-07-29T11:21:56;3.67;;;1.53;;
51872;SDS011;52863;52.504;13.480;2022-07-29T11:24:26;3.13;;;1.47;;
51872;SDS011;52863;52.504;13.480;2022-07-29T11:27:10;3.37;;;1.67;;
51872;SDS011;52863;52.504;13.480;2022-07-29T11:29:54;5.23;;;1.80;;
51872;SDS011;52863;52.504;13.480;2022-07-29T11:32:34;4.97;;;1.50;;
51872;SDS011;52863;52.504;13.480;2022-07-29T11:35:15;5.10;;;1.93;;
51872;SDS011;52863;52.504;13.480;2022-07-29T11:43:51;5.17;;;1.53;;
51872;SDS011;52863;52.504;13.480;2022-07-29T11:49:12;6.00;;;1.80;;
51872;SDS011;52863;52.504;13.480;2022-07-29T11:51:51;2.90;;;1.83;;
51872;SDS011;52863;52.504;13.480;2022-07-29T11:54:21;5.60;;;2.00;;
51872;SDS011;52863;52.504;13.480;2022-07-29T11:56:53;4.35;;;2.03;;
51872;SDS011;52863;52.504;13.480;2022-07-29T11:59:22;3.35;;;1.83;;
51872;SDS011;52863;52.504;13.480;2022-07-29T12:02:00;3.25;;;1.70;;
51872;SDS011;52863;52.504;13.480;2022-07-29T12:04:48;5.32;;;1.85;;
51872;SDS011;52863;52.504;13.480;2022-07-29T12:07:18;5.07;;;2.40;;
51872;SDS011;52863;52.504;13.480;2022-07-29T12:10:00;2.00;;;1.83;;
51872;SDS011;52863;52.504;13.480;2022-07-29T12:12:31;4.50;;;1.90;;
51872;SDS011;52863;52.504;13.480;2022-07-29T12:15:10;5.00;;;2.10;;
51872;SDS011;52863;52.504;13.480;2022-07-29T12:17:42;6.60;;;2.17;;
51872;SDS011;52863;52.504;13.480;2022-07-29T12:20:12;6.57;;;2.20;;
51872;SDS011;52863;52.504;13.480;2022-07-29T12:22:51;4.00;;;1.90;;
51872;SDS011;52863;52.504;13.480;2022-07-29T12:25:21;3.53;;;1.87;;
51872;SDS011;52863;52.504;13.480;2022-07-29T12:27:59;8.47;;;2.30;;
51872;SDS011;52863;52.504;13.480;2022-07-29T12:30:41;3.47;;;2.23;;
51872;SDS011;52863;52.504;13.480;2022-07-29T12:33:13;3.77;;;2.00;;
51872;SDS011;52863;52.504;13.480;2022-07-29T12:35:48;6.10;;;2.53;;
51872;SDS011;52863;52.504;13.480;2022-07-29T12:38:33;4.17;;;2.10;;
51872;SDS011;52863;52.504;13.480;2022-07-29T12:41:02;4.27;;;2.27;;
51872;SDS011;52863;52.504;13.480;2022-07-29T12:43:31;4.90;;;2.10;;
51872;SDS011;52863;52.504;13.480;2022-07-29T12:46:11;3.30;;;2.17;;
51872;SDS011;52863;52.504;13.480;2022-07-29T12:48:41;6.10;;;2.40;;
51872;SDS011;52863;52.504;13.480;2022-07-29T12:51:10;6.80;;;2.30;;
51872;SDS011;52863;52.504;13.480;2022-07-29T12:54:00;5.57;;;2.30;;
51872;SDS011;52863;52.504;13.480;2022-07-29T12:56:30;6.07;;;2.00;;
51872;SDS011;52863;52.504;13.480;2022-07-29T12:59:13;7.40;;;2.20;;
51872;SDS011;52863;52.504;13.480;2022-07-29T13:01:42;3.17;;;2.13;;
51872;SDS011;52863;52.504;13.480;2022-07-29T13:04:10;3.30;;;2.00;;
51872;SDS011;52863;52.504;13.480;2022-07-29T13:06:57;2.60;;;1.90;;
51872;SDS011;52863;52.504;13.480;2022-07-29T13:09:49;4.13;;;1.93;;
51872;SDS011;52863;52.504;13.480;2022-07-29T13:12:17;3.13;;;1.90;;
51872;SDS011;52863;52.504;13.480;2022-07-29T13:14:47;5.53;;;2.10;;
51872;SDS011;52863;52.504;13.480;2022-07-29T13:17:17;5.60;;;2.20;;
51872;SDS011;52863;52.504;13.480;2022-07-29T13:19:49;2.83;;;1.70;;
51872;SDS011;52863;52.504;13.480;2022-07-29T13:22:20;3.67;;;2.13;;
51872;SDS011;52863;52.504;13.480;2022-07-29T13:24:51;7.10;;;2.50;;
51872;SDS011;52863;52.504;13.480;2022-07-29T13:27:21;10.00;;;2.40;;
51872;SDS011;52863;52.504;13.480;2022-07-29T13:29:50;5.73;;;2.10;;
51872;SDS011;52863;52.504;13.480;2022-07-29T13:32:19;5.07;;;2.53;;
51872;SDS011;52863;52.504;13.480;2022-07-29T13:34:54;4.10;;;2.40;;
51872;SDS011;52863;52.504;13.480;2022-07-29T13:37:23;3.60;;;2.47;;
51872;SDS011;52863;52.504;13.480;2022-07-29T13:39:53;4.57;;;2.23;;
51872;SDS011;52863;52.504;13.480;2022-07-29T13:42:22;4.43;;;2.60;;
51872;SDS011;52863;52.504;13.480;2022-07-29T13:44:51;3.93;;;1.97;;
51872;SDS011;52863;52.504;13.480;2022-07-29T13:47:19;5.33;;;2.77;;
51872;SDS011;52863;52.504;13.480;2022-07-29T13:49:58;7.13;;;2.53;;
51872;SDS011;52863;52.504;13.480;2022-07-29T13:52:26;3.83;;;2.23;;
51872;SDS011;52863;52.504;13.480;2022-07-29T13:54:56;4.57;;;2.50;;
51872;SDS011;52863;52.504;13.480;2022-07-29T13:57:24;3.67;;;2.57;;
51872;SDS011;52863;52.504;13.480;2022-07-29T13:59:53;4.87;;;2.53;;
51872;SDS011;52863;52.504;13.480;2022-07-29T14:02:22;4.07;;;2.47;;
51872;SDS011;52863;52.504;13.480;2022-07-29T14:04:51;6.53;;;2.50;;
51872;SDS011;52863;52.504;13.480;2022-07-29T14:07:20;2.70;;;2.27;;
51872;SDS011;52863;52.504;13.480;2022-07-29T14:09:56;5.53;;;2.57;;
51872;SDS011;52863;52.504;13.480;2022-07-29T14:12:26;2.93;;;2.07;;
51872;SDS011;52863;52.504;13.480;2022-07-29T14:14:58;5.73;;;2.30;;
51872;SDS011;52863;52.504;13.480;2022-07-29T14:17:26;6.90;;;2.67;;
51872;SDS011;52863;52.504;13.480;2022-07-29T14:19:55;4.70;;;2.50;;
51872;SDS011;52863;52.504;13.480;2022-07-29T14:22:23;3.23;;;2.27;;
51872;SDS011;52863;52.504;13.480;2022-07-29T14:24:52;4.17;;;2.40;;
51872;SDS011;52863;52.504;13.480;2022-07-29T14:27:22;5.50;;;2.40;;
51872;SDS011;52863;52.504;13.480;2022-07-29T14:30:04;4.53;;;2.30;;
51872;SDS011;52863;52.504;13.480;2022-07-29T14:32:32;3.20;;;2.30;;
51872;SDS011;52863;52.504;13.480;2022-07-29T14:35:01;4.90;;;2.40;;
51872;SDS011;52863;52.504;13.480;2022-07-29T14:37:29;8.03;;;2.40;;
51872;SDS011;52863;52.504;13.480;2022-07-29T14:40:06;4.53;;;2.50;;
51872;SDS011;52863;52.504;13.480;2022-07-29T14:42:36;4.87;;;2.33;;
51872;SDS011;52863;52.504;13.480;2022-07-29T14:45:06;6.30;;;2.70;;
51872;SDS011;52863;52.504;13.480;2022-07-29T14:47:36;6.43;;;2.53;;
51872;SDS011;52863;52.504;13.480;2022-07-29T14:50:05;2.57;;;2.23;;
51872;SDS011;52863;52.504;13.480;2022-07-29T14:52:34;6.87;;;2.20;;
51872;SDS011;52863;52.504;13.480;2022-07-29T14:55:03;5.33;;;2.30;;
51872;SDS011;52863;52.504;13.480;2022-07-29T14:57:46;5.10;;;2.30;;
51872;SDS011;52863;52.504;13.480;2022-07-29T15:00:16;5.33;;;2.47;;
51872;SDS011;52863;52.504;13.480;2022-07-29T15:02:45;7.17;;;2.10;;
51872;SDS011;52863;52.504;13.480;2022-07-29T15:05:29;5.37;;;2.50;;
51872;SDS011;52863;52.504;13.480;2022-07-29T15:07:58;4.00;;;2.30;;
51872;SDS011;52863;52.504;13.480;2022-07-29T15:10:26;3.20;;;2.20;;
51872;SDS011;52863;52.504;13.480;2022-07-29T15:12:56;6.63;;;2.67;;
51872;SDS011;52863;52.504;13.480;2022-07-29T15:15:24;3.50;;;2.40;;
51872;SDS011;52863;52.504;13.480;2022-07-29T15:17:53;4.40;;;2.10;;
51872;SDS011;52863;52.504;13.480;2022-07-29T15:20:21;6.23;;;2.50;;
51872;SDS011;52863;52.504;13.480;2022-07-29T15:22:51;8.27;;;2.23;;
51872;SDS011;52863;52.504;13.480;2022-07-29T15:25:19;4.47;;;2.10;;
51872;SDS011;52863;52.504;13.480;2022-07-29T15:27:48;3.47;;;2.17;;
51872;SDS011;52863;52.504;13.480;2022-07-29T15:30:20;5.37;;;2.17;;
51872;SDS011;52863;52.504;13.480;2022-07-29T15:32:58;2.73;;;2.20;;
51872;SDS011;52863;52.504;13.480;2022-07-29T15:35:26;2.83;;;2.50;;
51872;SDS011;52863;52.504;13.480;2022-07-29T15:37:54;4.27;;;2.33;;
51872;SDS011;52863;52.504;13.480;2022-07-29T15:40:23;5.17;;;2.00;;
51872;SDS011;52863;52.504;13.480;2022-07-29T15:42:51;16.87;;;10.53;;